createdAt,value
2018-12-29T00:00:30.453Z,39.87
2018-12-29T00:02:58.540Z,35.17
2018-12-29T00:05:26.291Z,38.07
2018-12-29T00:07:54.308Z,40.60
2018-12-29T00:10:22.307Z,38.20
2018-12-29T00:12:50.774Z,41.83
2018-12-29T00:15:18.828Z,35.03
2018-12-29T00:17:47.999Z,37.23
2018-12-29T00:20:16.099Z,35.73
2018-12-29T00:22:44.314Z,35.90
2018-12-29T00:25:12.293Z,40.47
2018-12-29T00:27:40.597Z,37.10
2018-12-29T00:30:08.271Z,39.30
2018-12-29T00:32:36.218Z,37.07
2018-12-29T00:35:03.997Z,41.50
2018-12-29T00:37:31.961Z,35.23
2018-12-29T00:39:59.893Z,33.97
2018-12-29T00:42:28.332Z,37.17
2018-12-29T00:45:02.364Z,35.60
2018-12-29T00:47:25.761Z,37.67
2018-12-29T00:49:53.725Z,37.93
2018-12-29T00:52:21.753Z,35.43
2018-12-29T00:54:50.117Z,39.77
2018-12-29T00:57:17.801Z,34.17
2018-12-29T00:59:46.166Z,34.47
2018-12-29T01:02:14.550Z,39.73
2018-12-29T01:04:42.919Z,38.03
2018-12-29T01:07:10.613Z,37.00
2018-12-29T01:09:38.978Z,34.20
2018-12-29T01:12:07.013Z,38.13
2018-12-29T01:14:35.450Z,34.40
2018-12-29T01:17:03.101Z,36.83
2018-12-29T01:19:31.105Z,34.70
2018-12-29T01:22:01.042Z,36.73
2018-12-29T01:24:28.993Z,36.83
2018-12-29T01:26:56.970Z,39.67
2018-12-29T01:29:25.110Z,33.83
2018-12-29T01:31:53.358Z,40.93
2018-12-29T01:34:21.713Z,37.60
2018-12-29T01:36:49.684Z,35.57
2018-12-29T01:39:17.626Z,30.33
2018-12-29T01:41:45.338Z,35.73
2018-12-29T01:44:13.001Z,32.30
2018-12-29T01:46:41.334Z,35.90
2018-12-29T01:49:09.038Z,32.17
2018-12-29T01:51:37.410Z,35.87
2018-12-29T01:54:05.386Z,34.43
2018-12-29T01:56:33.533Z,35.13
2018-12-29T01:59:01.497Z,32.00
2018-12-29T02:01:29.176Z,33.83
2018-12-29T02:03:57.150Z,38.57
2018-12-29T02:06:24.817Z,35.90
2018-12-29T02:08:52.782Z,36.50
2018-12-29T02:11:20.871Z,35.60
2018-12-29T02:13:48.549Z,35.47
2018-12-29T02:16:16.461Z,36.30
2018-12-29T02:18:44.842Z,38.83
2018-12-29T02:21:13.202Z,33.13
2018-12-29T02:23:40.883Z,34.77
2018-12-29T02:26:09.191Z,34.17
2018-12-29T02:28:37.162Z,33.93
2018-12-29T02:31:05.457Z,35.27
2018-12-29T02:33:33.197Z,37.20
2018-12-29T02:36:01.149Z,32.87
2018-12-29T02:38:29.534Z,32.53
2018-12-29T02:40:57.606Z,36.67
2018-12-29T02:43:25.591Z,33.30
2018-12-29T02:45:53.273Z,38.13
2018-12-29T02:48:21.584Z,35.60
2018-12-29T02:50:50.002Z,33.37
2018-12-29T02:53:17.961Z,32.30
2018-12-29T02:55:45.649Z,35.60
2018-12-29T02:58:13.604Z,39.10
2018-12-29T03:00:42.017Z,34.20
2018-12-29T03:03:10.274Z,34.90
2018-12-29T03:05:38.229Z,35.00
2018-12-29T03:08:05.898Z,36.03
2018-12-29T03:10:34.341Z,34.60
2018-12-29T03:13:02.659Z,34.73
2018-12-29T03:15:30.668Z,36.47
2018-12-29T03:17:58.994Z,37.93
2018-12-29T03:20:27.025Z,35.00
2018-12-29T03:22:55.306Z,35.30
2018-12-29T03:25:23.342Z,37.77
2018-12-29T03:27:51.010Z,34.70
2018-12-29T03:30:18.708Z,34.27
2018-12-29T03:32:47.315Z,35.50
2018-12-29T03:35:15.468Z,38.13
2018-12-29T03:37:43.430Z,33.77
2018-12-29T03:40:11.752Z,38.43
2018-12-29T03:42:40.118Z,37.97
2018-12-29T03:45:08.089Z,35.23
2018-12-29T03:47:36.526Z,38.70
2018-12-29T03:50:04.617Z,38.87
2018-12-29T03:52:32.674Z,37.80
2018-12-29T03:55:00.692Z,40.43
2018-12-29T03:57:28.361Z,38.30
2018-12-29T03:59:56.711Z,38.33
2018-12-29T04:02:24.731Z,38.50
2018-12-29T04:04:52.801Z,38.73
2018-12-29T04:07:20.818Z,41.40
2018-12-29T04:09:48.766Z,40.97
2018-12-29T04:12:17.812Z,42.93
2018-12-29T04:14:45.778Z,44.43
2018-12-29T04:17:13.450Z,42.73
2018-12-29T04:19:41.790Z,42.50
2018-12-29T04:22:09.922Z,41.20
2018-12-29T04:24:38.065Z,38.83
2018-12-29T04:27:06.431Z,47.77
2018-12-29T04:29:34.565Z,42.57
2018-12-29T04:32:02.474Z,43.03
2018-12-29T04:34:30.770Z,46.50
2018-12-29T04:36:58.790Z,43.53
2018-12-29T04:39:26.802Z,44.67
2018-12-29T04:41:54.926Z,42.77
2018-12-29T04:44:23.249Z,46.17
2018-12-29T04:46:51.189Z,52.67
2018-12-29T04:49:19.393Z,44.53
2018-12-29T04:51:47.060Z,47.60
2018-12-29T04:54:14.720Z,44.47
2018-12-29T04:56:43.394Z,43.93
2018-12-29T04:59:11.197Z,45.67
2018-12-29T05:01:38.863Z,43.93
2018-12-29T05:04:07.203Z,43.73
2018-12-29T05:06:35.172Z,43.10
2018-12-29T05:09:04.461Z,45.77
2018-12-29T05:11:32.125Z,44.40
2018-12-29T05:14:00.134Z,47.60
2018-12-29T05:16:28.152Z,45.80
2018-12-29T05:18:56.194Z,46.23
2018-12-29T05:21:24.738Z,45.87
2018-12-29T05:23:53.338Z,44.73
2018-12-29T05:26:21.659Z,45.03
2018-12-29T05:28:50.083Z,47.00
2018-12-29T05:31:17.789Z,46.37
2018-12-29T05:33:46.122Z,43.80
2018-12-29T05:36:14.143Z,42.43
2018-12-29T05:38:41.821Z,44.43
2018-12-29T05:41:09.505Z,44.43
2018-12-29T05:43:37.533Z,40.07
2018-12-29T05:46:05.748Z,42.07
2018-12-29T05:48:33.778Z,47.83
2018-12-29T05:51:01.858Z,43.13
2018-12-29T05:53:29.922Z,44.60
2018-12-29T05:55:57.601Z,46.57
2018-12-29T05:58:25.814Z,44.87
2018-12-29T06:00:54.178Z,43.30
2018-12-29T06:03:21.877Z,44.90
2018-12-29T06:05:49.978Z,45.83
2018-12-29T06:08:18.398Z,43.43
2018-12-29T06:10:46.324Z,44.60
2018-12-29T06:13:14.532Z,47.00
2018-12-29T06:15:43.132Z,43.87
2018-12-29T06:18:11.509Z,48.13
2018-12-29T06:20:39.834Z,43.33
2018-12-29T06:23:07.925Z,40.30
2018-12-29T06:25:35.600Z,48.33
2018-12-29T06:28:03.303Z,44.47
2018-12-29T06:30:31.353Z,45.63
2018-12-29T06:32:59.817Z,43.33
2018-12-29T06:35:27.903Z,44.27
2018-12-29T06:37:55.572Z,40.60
2018-12-29T06:40:23.509Z,43.10
2018-12-29T06:42:51.809Z,42.80
2018-12-29T06:45:19.782Z,42.27
2018-12-29T06:47:47.848Z,41.87
2018-12-29T06:50:15.514Z,49.17
2018-12-29T06:52:43.450Z,46.03
2018-12-29T06:55:11.409Z,48.60
2018-12-29T06:57:39.728Z,41.33
2018-12-29T07:00:07.734Z,42.80
2018-12-29T07:02:36.058Z,45.83
2018-12-29T07:05:04.068Z,43.80
2018-12-29T07:07:32.079Z,44.63
2018-12-29T07:09:59.790Z,45.20
2018-12-29T07:12:27.802Z,50.93
2018-12-29T07:14:55.766Z,43.33
2018-12-29T07:17:24.095Z,42.03
2018-12-29T07:19:51.834Z,42.10
2018-12-29T07:22:19.890Z,42.07
2018-12-29T07:24:48.168Z,45.30
2018-12-29T07:27:15.831Z,43.30
2018-12-29T07:29:43.497Z,40.70
2018-12-29T07:32:11.890Z,43.87
2018-12-29T07:34:39.548Z,44.17
2018-12-29T07:37:07.615Z,45.30
2018-12-29T07:39:35.669Z,43.13
2018-12-29T07:42:03.741Z,46.47
2018-12-29T07:44:31.648Z,44.47
2018-12-29T07:46:59.680Z,48.57
2018-12-29T07:49:27.642Z,51.27
2018-12-29T07:51:55.973Z,44.90
2018-12-29T07:54:23.711Z,44.77
2018-12-29T07:56:52.110Z,44.63
2018-12-29T07:59:20.073Z,46.80
2018-12-29T08:01:48.049Z,52.10
2018-12-29T08:04:16.534Z,45.77
2018-12-29T08:06:44.606Z,48.90
2018-12-29T08:09:12.990Z,45.87
2018-12-29T08:11:40.654Z,47.80
2018-12-29T08:14:08.782Z,46.17
2018-12-29T08:16:37.201Z,46.97
2018-12-29T08:19:05.877Z,45.80
2018-12-29T08:21:34.246Z,48.20
2018-12-29T08:24:02.851Z,53.27
2018-12-29T08:26:30.806Z,48.40
2018-12-29T08:28:58.856Z,51.97
2018-12-29T08:31:27.266Z,45.33
2018-12-29T08:33:54.968Z,43.70
2018-12-29T08:36:22.975Z,45.70
2018-12-29T08:38:51.406Z,47.17
2018-12-29T08:41:19.705Z,50.10
2018-12-29T08:43:47.921Z,47.83
2018-12-29T08:46:15.586Z,48.77
2018-12-29T08:48:43.275Z,54.40
2018-12-29T08:51:11.209Z,48.37
2018-12-29T08:53:39.497Z,47.80
2018-12-29T08:56:08.001Z,45.73
2018-12-29T08:58:36.481Z,51.67
2018-12-29T09:01:04.473Z,47.67
2018-12-29T09:03:32.470Z,55.07
2018-12-29T09:06:00.430Z,51.67
2018-12-29T09:08:28.272Z,55.27
2018-12-29T09:10:56.295Z,53.77
2018-12-29T09:13:24.897Z,50.97
2018-12-29T09:15:52.938Z,48.00
2018-12-29T09:18:20.849Z,56.07
2018-12-29T09:20:48.866Z,53.33
2018-12-29T09:23:16.825Z,50.67
2018-12-29T09:25:44.505Z,49.70
2018-12-29T09:28:12.461Z,49.27
2018-12-29T09:30:40.447Z,50.47
2018-12-29T09:33:08.438Z,57.37
2018-12-29T09:35:36.827Z,62.07
2018-12-29T09:38:05.138Z,59.83
2018-12-29T09:40:33.574Z,49.47
2018-12-29T09:43:01.538Z,56.33
2018-12-29T09:45:29.585Z,65.03
2018-12-29T09:47:57.581Z,57.33
2018-12-29T09:50:25.389Z,53.33
2018-12-29T09:52:53.637Z,56.17
2018-12-29T09:55:21.293Z,55.50
2018-12-29T09:57:49.614Z,54.47
2018-12-29T10:00:17.610Z,55.30
2018-12-29T10:02:48.255Z,52.47
2018-12-29T10:05:16.458Z,50.83
2018-12-29T10:07:44.477Z,46.87
2018-12-29T10:10:12.403Z,49.27
2018-12-29T10:12:40.094Z,46.47
2018-12-29T10:15:08.075Z,56.20
2018-12-29T10:17:36.388Z,50.13
2018-12-29T10:20:04.081Z,49.57
2018-12-29T10:22:31.773Z,49.13
2018-12-29T10:24:59.768Z,44.10
2018-12-29T10:27:27.672Z,46.50
2018-12-29T10:29:55.971Z,49.10
2018-12-29T10:32:23.632Z,50.23
2018-12-29T10:34:52.046Z,52.80
2018-12-29T10:37:20.127Z,52.97
2018-12-29T10:39:47.781Z,52.60
2018-12-29T10:42:16.089Z,52.40
2018-12-29T10:44:43.754Z,52.80
2018-12-29T10:47:34.466Z,50.57
2018-12-29T10:50:00.753Z,47.33
2018-12-29T10:52:28.528Z,46.67
2018-12-29T10:54:56.581Z,53.27
2018-12-29T10:57:24.248Z,43.60
2018-12-29T10:59:52.248Z,46.00
2018-12-29T11:02:20.595Z,41.07
2018-12-29T11:04:48.617Z,47.30
2018-12-29T11:07:16.717Z,46.70
2018-12-29T11:10:03.713Z,43.93
2018-12-29T11:15:05.741Z,39.17
2018-12-29T11:17:33.438Z,35.87
2018-12-29T11:20:01.105Z,41.87
2018-12-29T11:22:29.400Z,34.53
2018-12-29T11:24:57.410Z,36.00
2018-12-29T11:27:25.440Z,33.47
2018-12-29T11:29:53.657Z,32.63
2018-12-29T11:32:21.414Z,35.40
2018-12-29T11:37:36.821Z,35.90
2018-12-29T11:40:04.490Z,32.50
2018-12-29T11:45:06.105Z,39.63
2018-12-29T11:47:33.761Z,37.63
2018-12-29T11:50:01.438Z,39.90
2018-12-29T11:52:29.505Z,35.30
2018-12-29T11:54:58.038Z,35.13
2018-12-29T11:57:26.062Z,29.80
2018-12-29T11:59:54.383Z,34.50
2018-12-29T12:02:24.613Z,31.97
2018-12-29T12:05:11.571Z,28.10
2018-12-29T12:07:47.061Z,32.53
2018-12-29T12:12:48.151Z,29.93
2018-12-29T12:15:16.302Z,29.27
2018-12-29T12:17:44.363Z,28.27
2018-12-29T12:20:12.029Z,29.80
2018-12-29T12:22:39.954Z,28.57
2018-12-29T12:25:07.625Z,30.87
2018-12-29T12:27:35.925Z,29.27
2018-12-29T12:30:03.718Z,32.17
2018-12-29T12:32:31.845Z,34.63
2018-12-29T12:35:01.811Z,39.43
2018-12-29T12:37:29.825Z,31.10
2018-12-29T12:40:00.089Z,31.47
2018-12-29T12:42:47.155Z,27.07
2018-12-29T12:45:15.142Z,22.77
2018-12-29T12:50:30.305Z,26.87
2018-12-29T12:52:58.625Z,28.20
2018-12-29T12:55:26.653Z,27.43
2018-12-29T12:57:54.605Z,24.33
2018-12-29T13:00:23.997Z,27.23
2018-12-29T13:02:52.146Z,26.63
2018-12-29T13:05:20.229Z,25.47
2018-12-29T13:07:47.968Z,26.70
2018-12-29T13:10:17.349Z,27.73
2018-12-29T13:12:45.585Z,24.43
2018-12-29T13:15:13.545Z,24.17
2018-12-29T13:17:41.594Z,25.00
2018-12-29T13:20:09.585Z,23.50
2018-12-29T13:25:31.831Z,23.63
2018-12-29T13:27:59.906Z,23.70
2018-12-29T13:30:27.931Z,22.37
2018-12-29T13:32:56.253Z,24.83
2018-12-29T13:35:24.046Z,26.10
2018-12-29T13:37:52.011Z,26.13
2018-12-29T13:40:20.055Z,22.80
2018-12-29T13:42:48.426Z,22.10
2018-12-29T13:45:16.807Z,22.40
2018-12-29T13:47:44.475Z,24.73
2018-12-29T13:50:12.394Z,25.43
2018-12-29T13:52:40.707Z,23.13
2018-12-29T13:55:08.945Z,25.97
2018-12-29T13:57:38.365Z,21.33
2018-12-29T14:00:25.121Z,24.67
2018-12-29T14:02:53.146Z,23.20
2018-12-29T14:05:21.351Z,24.23
2018-12-29T14:10:22.113Z,22.73
2018-12-29T14:13:09.177Z,21.93
2018-12-29T14:15:36.870Z,23.60
2018-12-29T14:18:04.836Z,22.10
2018-12-29T14:20:32.797Z,18.90
2018-12-29T14:23:00.733Z,20.40
2018-12-29T14:25:29.276Z,22.37
2018-12-29T14:27:57.300Z,22.43
2018-12-29T14:32:58.186Z,22.27
2018-12-29T14:35:44.966Z,25.60
2018-12-29T14:40:59.589Z,22.33
2018-12-29T14:43:28.069Z,21.00
2018-12-29T14:45:56.949Z,20.10
2018-12-29T14:48:24.634Z,24.10
2018-12-29T14:50:52.639Z,18.70
2018-12-29T14:53:20.306Z,17.07
2018-12-29T14:55:48.058Z,16.97
2018-12-29T14:58:18.022Z,21.40
2018-12-29T15:00:46.019Z,17.50
2018-12-29T15:03:14.093Z,16.40
2018-12-29T15:06:01.197Z,18.63
2018-12-29T15:08:29.294Z,17.87
2018-12-29T15:10:57.538Z,14.50
2018-12-29T15:13:27.014Z,13.23
2018-12-29T15:15:55.126Z,13.00
2018-12-29T15:18:25.441Z,14.53
2018-12-29T15:20:54.326Z,14.60
2018-12-29T15:23:22.907Z,13.83
2018-12-29T15:28:24.243Z,12.83
2018-12-29T15:30:51.982Z,10.27
2018-12-29T15:36:07.437Z,13.17
2018-12-29T15:38:35.172Z,13.30
2018-12-29T15:41:03.161Z,12.33
2018-12-29T15:43:31.197Z,13.53
2018-12-29T15:45:58.869Z,12.40
2018-12-29T15:48:28.830Z,11.43
2018-12-29T15:50:56.821Z,11.17
2018-12-29T15:53:25.158Z,14.83
2018-12-29T15:56:11.977Z,12.70
2018-12-29T15:58:40.349Z,12.33
2018-12-29T16:01:10.130Z,12.43
2018-12-29T16:03:37.790Z,13.50
2018-12-29T16:06:05.962Z,16.77
2018-12-29T16:08:33.936Z,15.30
2018-12-29T16:11:01.597Z,14.87
2018-12-29T16:13:29.280Z,14.90
2018-12-29T16:15:57.201Z,17.43
2018-12-29T16:18:26.973Z,17.77
2018-12-29T16:20:55.445Z,18.97
2018-12-29T16:25:58.667Z,22.80
2018-12-29T16:28:26.945Z,22.63
2018-12-29T16:33:41.855Z,23.63
2018-12-29T16:36:11.208Z,26.07
2018-12-29T16:38:39.710Z,22.90
2018-12-29T16:41:09.630Z,25.27
2018-12-29T16:43:37.705Z,31.80
2018-12-29T16:46:06.307Z,29.53
2018-12-29T16:48:34.761Z,26.80
2018-12-29T16:51:04.448Z,27.97
2018-12-29T16:53:32.122Z,29.80
2018-12-29T16:55:59.820Z,27.27
2018-12-29T16:58:28.104Z,27.07
2018-12-29T17:00:57.793Z,29.07
2018-12-29T17:03:25.851Z,26.60
2018-12-29T17:05:54.632Z,26.60
2018-12-29T17:08:22.642Z,31.00
2018-12-29T17:10:52.098Z,27.90
2018-12-29T17:13:19.767Z,21.60
2018-12-29T17:15:48.256Z,25.60
2018-12-29T17:18:16.274Z,28.80
2018-12-29T17:20:44.347Z,20.77
2018-12-29T17:23:12.566Z,27.03
2018-12-29T17:25:41.978Z,22.03
2018-12-29T17:30:57.473Z,19.47
2018-12-29T17:33:25.208Z,21.77
2018-12-29T17:35:52.988Z,21.57
2018-12-29T17:38:22.478Z,24.77
2018-12-29T17:40:50.403Z,23.90
2018-12-29T17:43:18.651Z,19.53
2018-12-29T17:45:47.228Z,23.30
2018-12-29T17:48:15.315Z,21.70
2018-12-29T17:50:43.401Z,22.27
2018-12-29T17:53:11.427Z,19.50
2018-12-29T17:55:39.777Z,17.80
2018-12-29T17:58:07.498Z,24.00
2018-12-29T18:00:35.516Z,20.07
2018-12-29T18:03:05.891Z,18.17
2018-12-29T18:05:33.781Z,17.87
2018-12-29T18:08:01.973Z,19.20
2018-12-29T18:10:31.666Z,22.87
2018-12-29T18:13:19.105Z,22.23
2018-12-29T18:15:46.756Z,20.90
2018-12-29T18:18:14.713Z,22.03
2018-12-29T18:20:44.407Z,19.10
2018-12-29T18:23:13.101Z,19.43
2018-12-29T18:25:40.824Z,21.80
2018-12-29T18:28:09.134Z,19.33
2018-12-29T18:30:37.238Z,26.90
2018-12-29T18:33:05.587Z,18.17
2018-12-29T18:35:33.254Z,16.90
2018-12-29T18:38:01.721Z,19.97
2018-12-29T18:40:29.381Z,20.60
2018-12-29T18:42:57.689Z,19.03
2018-12-29T18:45:27.373Z,20.33
2018-12-29T18:47:56.205Z,21.10
2018-12-29T18:50:24.289Z,18.80
2018-12-29T18:52:52.309Z,23.00
2018-12-29T18:55:20.683Z,20.87
2018-12-29T18:57:50.377Z,21.90
2018-12-29T19:00:18.052Z,24.70
2018-12-29T19:02:46.536Z,22.00
2018-12-29T19:05:14.486Z,27.63
2018-12-29T19:07:42.246Z,25.50
2018-12-29T19:10:11.931Z,25.00
2018-12-29T19:12:40.002Z,25.43
2018-12-29T19:15:08.043Z,25.53
2018-12-29T19:17:36.366Z,26.00
2018-12-29T19:20:05.930Z,28.33
2018-12-29T19:22:34.240Z,29.60
2018-12-29T19:25:02.901Z,27.13
2018-12-29T19:27:31.049Z,29.13
2018-12-29T19:29:59.070Z,30.07
2018-12-29T19:32:28.937Z,27.20
2018-12-29T19:34:56.682Z,30.10
2018-12-29T19:37:24.659Z,30.27
2018-12-29T19:39:54.365Z,29.10
2018-12-29T19:42:22.462Z,38.83
2018-12-29T19:44:50.499Z,32.77
2018-12-29T19:47:18.238Z,34.83
2018-12-29T19:49:45.926Z,38.03
2018-12-29T19:52:14.323Z,42.90
2018-12-29T19:54:42.515Z,39.03
2018-12-29T19:57:12.717Z,35.00
2018-12-29T20:02:30.282Z,39.13
2018-12-29T20:07:47.195Z,38.00
2018-12-29T20:10:14.861Z,31.37
2018-12-29T20:12:43.098Z,36.20
2018-12-29T20:15:11.313Z,37.20
2018-12-29T20:17:39.305Z,44.77
2018-12-29T20:20:07.259Z,40.57
2018-12-29T20:22:35.206Z,41.40
2018-12-29T20:25:03.128Z,36.00
2018-12-29T20:27:31.437Z,47.20
2018-12-29T20:29:59.754Z,44.90
2018-12-29T20:32:27.698Z,38.03
2018-12-29T20:34:55.907Z,41.10
2018-12-29T20:37:42.990Z,49.20
2018-12-29T20:40:11.578Z,40.50
2018-12-29T20:42:39.557Z,43.00
2018-12-29T20:45:07.921Z,45.07
2018-12-29T20:47:36.307Z,46.87
2018-12-29T20:50:09.579Z,48.70
2018-12-29T20:52:33.837Z,44.37
2018-12-29T20:55:20.993Z,41.60
2018-12-29T20:57:49.009Z,51.20
2018-12-29T21:00:16.671Z,43.73
2018-12-29T21:02:44.701Z,45.10
2018-12-29T21:08:01.758Z,42.83
2018-12-29T21:10:29.964Z,45.73
2018-12-29T21:12:57.646Z,42.60
2018-12-29T21:15:27.610Z,41.87
2018-12-29T21:17:55.938Z,41.43
2018-12-29T21:20:23.598Z,36.10
2018-12-29T21:23:10.945Z,45.43
2018-12-29T21:25:59.677Z,36.37
2018-12-29T21:28:28.289Z,39.60
2018-12-29T21:30:56.320Z,45.63
2018-12-29T21:33:24.585Z,36.70
2018-12-29T21:35:54.546Z,35.97
2018-12-29T21:41:09.921Z,34.30
2018-12-29T21:43:37.909Z,38.10
2018-12-29T21:46:07.635Z,33.57
2018-12-29T21:48:35.302Z,33.27
2018-12-29T21:51:22.161Z,31.70
2018-12-29T21:53:50.721Z,32.80
2018-12-29T21:56:19.054Z,27.37
2018-12-29T21:58:47.332Z,35.30
2018-12-29T22:01:15.917Z,37.70
2018-12-29T22:03:44.292Z,39.47
2018-12-29T22:06:12.240Z,33.40
2018-12-29T22:08:40.147Z,30.77
2018-12-29T22:11:10.155Z,34.30
2018-12-29T22:13:37.894Z,30.97
2018-12-29T22:16:05.831Z,27.07
2018-12-29T22:18:34.182Z,27.33
2018-12-29T22:21:02.512Z,29.57
2018-12-29T22:23:30.435Z,31.87
2018-12-29T22:25:58.125Z,26.70
2018-12-29T22:28:25.860Z,27.97
2018-12-29T22:30:54.213Z,25.53
2018-12-29T22:33:22.177Z,24.43
2018-12-29T22:35:50.158Z,22.60
2018-12-29T22:38:19.551Z,20.63
2018-12-29T22:40:47.785Z,17.80
2018-12-29T22:45:49.314Z,18.23
2018-12-29T22:48:17.748Z,24.23
2018-12-29T22:50:47.522Z,23.00
2018-12-29T22:53:15.203Z,28.73
2018-12-29T22:55:46.919Z,20.30
2018-12-29T22:58:14.656Z,21.33
2018-12-29T23:03:50.054Z,21.73
2018-12-29T23:06:18.330Z,18.50
2018-12-29T23:08:46.709Z,14.60
2018-12-29T23:11:15.052Z,19.30
2018-12-29T23:13:43.106Z,13.80
2018-12-29T23:16:30.189Z,10.30
2018-12-29T23:19:17.509Z,10.03
2018-12-29T23:21:45.169Z,16.23
2018-12-29T23:24:15.182Z,13.67
2018-12-29T23:26:43.096Z,7.40
2018-12-29T23:29:12.757Z,8.27
2018-12-29T23:31:40.742Z,13.70
2018-12-29T23:34:08.885Z,10.87
2018-12-29T23:36:37.614Z,10.13
2018-12-29T23:39:05.382Z,7.53
2018-12-29T23:44:20.161Z,8.00
2018-12-29T23:46:47.881Z,7.87
2018-12-29T23:51:50.132Z,11.77
2018-12-29T23:54:18.425Z,11.13
2018-12-29T23:56:47.098Z,10.00
2018-12-29T23:59:15.177Z,12.13
